Honey Creek, Illinois
Current Conditions -  °F | °C
As of 11:15 PM on Monday 22 Dec 2014 (Local Time) from KRPJ Reporting Station
Light Rain Light Rain  
Wind Chill: 33°   Ceiling: 400
Heat Index: 40°   Visibility: 2mi
Dew Point: 40°   Wind: 10mph
Humidity: 99%   Direction: 110°ESE
Pressure: 29.54"   Gusts: NA
Location:  41.9937°N, 89.1961°W
Report Text: KRPJ 230515Z AUTO 11009KT 2SM -RA OVC004 04/04 A2954 RMK AO2 T00430042
Loading
Personal Weather Stations






























Interactive Weather Map New forecast layout! Learn more

10-Day Weather Forecast

Advertisements
Track Severe Weather on mobile